createdAt,value
2023-02-25T00:00:54.363Z,-1.34
2023-02-25T00:05:59.163Z,-1.34
2023-02-25T00:11:04.445Z,-1.25
2023-02-25T00:16:09.098Z,-1.27
2023-02-25T00:21:16.272Z,-1.25
2023-02-25T00:26:20.321Z,-1.27
2023-02-25T00:31:26.282Z,-1.34
2023-02-25T00:36:31.077Z,-1.24
2023-02-25T00:41:34.744Z,-1.16
2023-02-25T00:46:38.224Z,-1.18
2023-02-25T00:51:43.137Z,-1.24
2023-02-25T00:56:46.361Z,-1.25
2023-02-25T01:01:49.874Z,-1.32
2023-02-25T01:06:55.432Z,-1.01
2023-02-25T01:11:58.814Z,-1.16
2023-02-25T01:17:03.646Z,-1.08
2023-02-25T01:22:08.361Z,-1.10
2023-02-25T01:27:11.911Z,-0.89
2023-02-25T01:32:16.714Z,-0.97
2023-02-25T01:37:21.351Z,-0.97
2023-02-25T01:42:25.075Z,-1.04
2023-02-25T01:47:33.772Z,-0.91
2023-02-25T01:52:41.592Z,-0.97
2023-02-25T01:57:45.017Z,-0.98
2023-02-25T02:02:50.811Z,-0.96
2023-02-25T02:07:55.888Z,-1.06
2023-02-25T02:12:59.496Z,-0.95
2023-02-25T02:18:23.210Z,-0.83
2023-02-25T02:24:07.964Z,-0.95
2023-02-25T02:29:35.636Z,-0.83
2023-02-25T02:34:47.661Z,-0.63
2023-02-25T02:40:00.542Z,-0.80
2023-02-25T02:45:12.863Z,-0.66
2023-02-25T02:50:25.099Z,-0.73
2023-02-25T02:55:33.737Z,-0.79
2023-02-25T03:00:40.649Z,-0.79
2023-02-25T03:05:50.457Z,-0.93
2023-02-25T03:10:54.313Z,-0.81
2023-02-25T03:16:01.463Z,-0.73
2023-02-25T03:21:14.661Z,-0.66
2023-02-25T03:26:24.929Z,-0.56
2023-02-25T03:31:31.680Z,-0.52
2023-02-25T03:36:41.625Z,-0.73
2023-02-25T03:41:48.414Z,-0.67
2023-02-25T03:46:53.806Z,-0.62
2023-02-25T03:52:01.253Z,-0.64
2023-02-25T03:57:04.781Z,-0.59
2023-02-25T04:02:08.928Z,-0.42
2023-02-25T04:07:13.836Z,-0.41
2023-02-25T04:12:16.909Z,-0.42
2023-02-25T04:17:20.650Z,-0.52
2023-02-25T04:22:26.007Z,-0.43
2023-02-25T04:27:29.523Z,-0.43
2023-02-25T04:32:33.082Z,-0.43
2023-02-25T04:37:37.996Z,-0.48
2023-02-25T04:42:41.082Z,-0.49
2023-02-25T04:47:44.864Z,-0.40
2023-02-25T04:52:49.787Z,-0.24
2023-02-25T04:57:52.875Z,-0.03
2023-02-25T05:02:56.633Z,-0.14
2023-02-25T05:08:01.569Z,0.06
2023-02-25T05:13:05.128Z,0.27
2023-02-25T05:18:08.911Z,0.35
2023-02-25T05:23:13.923Z,0.44
2023-02-25T05:28:17.479Z,0.44
2023-02-25T05:33:20.969Z,0.52
2023-02-25T05:38:26.325Z,0.54
2023-02-25T05:43:30.227Z,0.49
2023-02-25T05:48:34.416Z,0.71
2023-02-25T05:53:39.671Z,0.85
2023-02-25T05:58:43.504Z,0.86
2023-02-25T06:03:50.233Z,1.08
2023-02-25T06:08:55.339Z,1.25
2023-02-25T06:14:00.048Z,1.30
2023-02-25T06:19:03.686Z,1.23
2023-02-25T06:24:09.172Z,1.74
2023-02-25T06:29:13.033Z,1.65
2023-02-25T06:34:16.606Z,1.51
2023-02-25T06:39:21.390Z,1.80
2023-02-25T06:44:24.827Z,1.80
2023-02-25T06:49:28.192Z,1.82
2023-02-25T06:54:33.075Z,1.91
2023-02-25T06:59:36.175Z,1.94
2023-02-25T07:04:39.689Z,2.08
2023-02-25T07:09:44.617Z,2.26
2023-02-25T07:14:47.795Z,2.72
2023-02-25T07:19:51.495Z,3.05
2023-02-25T07:24:56.292Z,3.08
2023-02-25T07:30:00.875Z,3.23
2023-02-25T07:35:04.720Z,3.33
2023-02-25T07:40:13.734Z,3.53
2023-02-25T07:45:17.096Z,3.70
2023-02-25T07:50:20.837Z,3.77
2023-02-25T07:55:25.986Z,3.82
2023-02-25T08:00:29.461Z,3.66
2023-02-25T08:05:35.452Z,3.60
2023-02-25T08:10:40.245Z,3.74
2023-02-25T08:15:43.878Z,3.81
2023-02-25T08:20:48.688Z,3.96
2023-02-25T08:25:56.388Z,4.09
2023-02-25T08:31:01.436Z,4.03
2023-02-25T08:36:09.867Z,3.93
2023-02-25T08:41:14.864Z,3.95
2023-02-25T08:46:20.889Z,4.12
2023-02-25T08:51:34.153Z,4.31
2023-02-25T08:56:44.533Z,4.01
2023-02-25T09:01:49.317Z,4.07
2023-02-25T09:06:54.333Z,4.35
2023-02-25T09:11:58.973Z,4.82
2023-02-25T09:17:04.176Z,4.58
2023-02-25T09:22:08.456Z,4.87
2023-02-25T09:27:13.507Z,4.99
2023-02-25T09:32:18.380Z,4.60
2023-02-25T09:37:22.080Z,4.65
2023-02-25T09:42:34.714Z,4.55
2023-02-25T09:47:45.999Z,4.68
2023-02-25T09:53:07.771Z,4.59
2023-02-25T09:58:20.419Z,4.55
2023-02-25T10:03:28.289Z,4.56
2023-02-25T10:08:40.570Z,4.75
2023-02-25T10:13:55.877Z,4.83
2023-02-25T10:19:03.985Z,5.21
2023-02-25T10:24:19.907Z,5.18
2023-02-25T10:29:30.037Z,5.32
2023-02-25T10:34:38.980Z,5.20
2023-02-25T10:39:42.486Z,5.35
2023-02-25T10:44:48.062Z,5.17
2023-02-25T10:50:15.043Z,4.78
2023-02-25T10:55:28.572Z,4.85
2023-02-25T11:00:36.575Z,4.87
2023-02-25T11:05:43.763Z,4.98
2023-02-25T11:11:03.588Z,4.82
2023-02-25T11:16:12.656Z,4.50
2023-02-25T11:21:16.458Z,4.21
2023-02-25T11:26:30.600Z,4.48
2023-02-25T11:31:37.832Z,4.57
2023-02-25T11:36:42.037Z,4.53
2023-02-25T11:41:46.529Z,4.57
2023-02-25T11:47:01.707Z,4.52
2023-02-25T11:52:10.340Z,4.22
2023-02-25T11:57:21.304Z,4.18
2023-02-25T12:02:45.587Z,4.06
2023-02-25T12:08:14.402Z,4.09
2023-02-25T12:13:57.228Z,4.04
2023-02-25T12:19:38.900Z,3.72
2023-02-25T12:25:15.184Z,3.82
2023-02-25T12:30:50.163Z,3.79
2023-02-25T12:36:11.528Z,3.86
2023-02-25T12:41:39.726Z,3.73
2023-02-25T12:46:59.013Z,3.77
2023-02-25T12:52:19.196Z,3.82
2023-02-25T12:57:37.554Z,3.50
2023-02-25T13:02:54.941Z,3.69
2023-02-25T13:08:51.900Z,3.59
2023-02-25T13:14:28.589Z,3.76
2023-02-25T13:20:08.203Z,3.83
2023-02-25T13:25:16.532Z,3.82
2023-02-25T13:30:31.453Z,3.51
2023-02-25T13:35:46.398Z,3.40
2023-02-25T13:41:01.137Z,3.49
2023-02-25T13:46:27.477Z,3.28
2023-02-25T13:51:58.001Z,3.25
2023-02-25T13:57:11.735Z,3.20
2023-02-25T14:02:51.027Z,3.40
2023-02-25T14:08:14.808Z,3.47
2023-02-25T14:13:54.538Z,3.36
2023-02-25T14:19:20.998Z,3.22
2023-02-25T14:24:32.425Z,3.13
2023-02-25T14:29:44.553Z,3.10
2023-02-25T14:35:00.861Z,2.90
2023-02-25T14:40:20.707Z,2.82
2023-02-25T14:45:29.379Z,2.87
2023-02-25T14:50:41.672Z,2.84
2023-02-25T14:56:22.444Z,2.97
2023-02-25T15:02:03.453Z,2.75
2023-02-25T15:07:16.805Z,2.73
2023-02-25T15:12:44.586Z,2.63
2023-02-25T15:18:34.755Z,2.56
2023-02-25T15:23:52.008Z,2.66
2023-02-25T15:28:57.173Z,2.76
2023-02-25T15:34:39.973Z,2.58
2023-02-25T15:39:54.001Z,2.54
2023-02-25T15:45:39.060Z,2.62
2023-02-25T15:50:55.010Z,2.75
2023-02-25T15:56:25.613Z,2.90
2023-02-25T16:01:48.515Z,2.96
2023-02-25T16:06:53.758Z,2.80
2023-02-25T16:12:08.435Z,2.74
2023-02-25T16:17:19.121Z,2.85
2023-02-25T16:22:25.182Z,2.86
2023-02-25T16:27:45.392Z,2.94
2023-02-25T16:33:01.014Z,2.88
2023-02-25T16:38:10.495Z,2.96
2023-02-25T16:43:17.277Z,2.90
2023-02-25T16:48:28.594Z,2.92
2023-02-25T16:53:33.002Z,2.83
2023-02-25T16:58:36.391Z,2.99
2023-02-25T17:03:47.033Z,2.68
2023-02-25T17:08:52.331Z,2.68
2023-02-25T17:13:58.883Z,2.61
2023-02-25T17:19:07.064Z,2.57
2023-02-25T17:24:16.221Z,2.55
2023-02-25T17:29:20.831Z,2.50
2023-02-25T17:34:33.222Z,2.58
2023-02-25T17:39:37.481Z,2.54
2023-02-25T17:44:47.575Z,2.67
2023-02-25T17:49:52.967Z,2.61
2023-02-25T17:55:00.668Z,2.34
2023-02-25T18:00:14.332Z,2.45
2023-02-25T18:05:25.270Z,2.66
2023-02-25T18:10:44.503Z,2.49
2023-02-25T18:15:53.216Z,2.57
2023-02-25T18:21:03.837Z,2.44
2023-02-25T18:26:16.464Z,2.39
2023-02-25T18:31:20.546Z,2.37
2023-02-25T18:36:27.926Z,2.40
2023-02-25T18:41:31.412Z,2.48
2023-02-25T18:46:34.977Z,2.23
2023-02-25T18:51:40.066Z,2.33
2023-02-25T18:56:43.521Z,2.43
2023-02-25T19:01:47.190Z,2.33
2023-02-25T19:06:52.025Z,2.14
2023-02-25T19:11:55.531Z,2.23
2023-02-25T19:16:59.026Z,2.37
2023-02-25T19:22:03.821Z,2.04
2023-02-25T19:27:07.233Z,2.36
2023-02-25T19:32:10.801Z,2.28
2023-02-25T19:37:17.831Z,2.42
2023-02-25T19:42:21.259Z,2.26
2023-02-25T19:47:25.146Z,2.13
2023-02-25T19:52:30.965Z,2.32
2023-02-25T19:57:34.603Z,2.45
2023-02-25T20:02:38.147Z,2.10
2023-02-25T20:07:44.560Z,2.06
2023-02-25T20:12:48.466Z,1.99
2023-02-25T20:17:55.123Z,2.01
2023-02-25T20:22:59.913Z,2.08
2023-02-25T20:28:03.609Z,2.16
2023-02-25T20:33:07.160Z,2.07
2023-02-25T20:38:17.786Z,2.08
2023-02-25T20:43:21.463Z,2.04
2023-02-25T20:48:29.416Z,1.98
2023-02-25T20:53:35.011Z,1.78
2023-02-25T20:58:38.448Z,1.80
2023-02-25T21:03:41.809Z,1.90
2023-02-25T21:08:47.253Z,1.95
2023-02-25T21:13:51.650Z,1.97
2023-02-25T21:18:55.202Z,1.64
2023-02-25T21:23:59.955Z,1.57
2023-02-25T21:29:03.310Z,1.52
2023-02-25T21:34:09.224Z,1.58
2023-02-25T21:39:14.130Z,1.49
2023-02-25T21:44:17.716Z,1.63
2023-02-25T21:49:21.200Z,1.47
2023-02-25T21:54:26.144Z,1.63
2023-02-25T21:59:29.313Z,1.73
2023-02-25T22:04:32.699Z,1.75
2023-02-25T22:09:37.493Z,1.58
2023-02-25T22:14:40.904Z,1.87
2023-02-25T22:19:44.283Z,1.81
2023-02-25T22:24:49.180Z,1.92
2023-02-25T22:29:52.537Z,1.67
2023-02-25T22:34:55.949Z,1.96
2023-02-25T22:40:00.859Z,1.71
2023-02-25T22:45:04.080Z,1.84
2023-02-25T22:50:09.357Z,1.95
2023-02-25T22:55:14.322Z,2.08
2023-02-25T23:00:18.702Z,2.17
2023-02-25T23:05:22.135Z,2.01
2023-02-25T23:10:28.233Z,2.06
2023-02-25T23:15:33.253Z,2.13
2023-02-25T23:20:38.975Z,2.21
2023-02-25T23:25:43.871Z,1.95
2023-02-25T23:30:47.107Z,1.84
2023-02-25T23:35:50.434Z,2.21
2023-02-25T23:41:00.057Z,2.38
2023-02-25T23:46:04.764Z,2.11
2023-02-25T23:51:09.670Z,2.37
2023-02-25T23:56:15.069Z,2.38
